createdAt,value
2023-05-02T00:03:58.106Z,100063.44
2023-05-02T00:09:00.221Z,100063.59
2023-05-02T00:14:01.987Z,100065.81
2023-05-02T00:19:03.788Z,100061.31
2023-05-02T00:24:06.027Z,100063.28
2023-05-02T00:29:08.411Z,100074.84
2023-05-02T00:34:10.224Z,100071.19
2023-05-02T00:39:12.037Z,100068.41
2023-05-02T00:44:13.797Z,100078.97
2023-05-02T00:49:15.602Z,100085.66
2023-05-02T00:54:17.697Z,100093.75
2023-05-02T00:59:19.989Z,100091.00
2023-05-02T01:05:01.213Z,100087.81
2023-05-02T01:10:20.243Z,100098.44
2023-05-02T01:15:23.620Z,100106.34
2023-05-02T01:20:29.371Z,100108.91
2023-05-02T01:25:51.640Z,100115.72
2023-05-02T01:30:56.351Z,100113.22
2023-05-02T01:35:59.783Z,100112.84
2023-05-02T01:41:05.393Z,100109.66
2023-05-02T01:46:11.260Z,100111.00
2023-05-02T01:51:17.255Z,100108.88
2023-05-02T01:56:21.448Z,100121.09
2023-05-02T02:01:27.533Z,100128.50
2023-05-02T02:06:29.456Z,100137.75
2023-05-02T02:11:46.687Z,100139.28
2023-05-02T02:16:50.862Z,100134.38
2023-05-02T02:21:56.167Z,100153.66
2023-05-02T02:26:57.976Z,100155.19
2023-05-02T02:31:59.766Z,100166.94
2023-05-02T02:37:08.950Z,100175.53
2023-05-02T02:42:24.735Z,100170.53
2023-05-02T02:47:37.408Z,100184.84
2023-05-02T02:52:54.253Z,100185.72
2023-05-02T02:58:02.108Z,100190.59
2023-05-02T03:03:07.197Z,100190.28
2023-05-02T03:08:09.097Z,100202.75
2023-05-02T03:13:11.190Z,100202.63
2023-05-02T03:18:14.798Z,100211.22
2023-05-02T03:23:16.785Z,100208.03
2023-05-02T03:28:18.647Z,100216.25
2023-05-02T03:33:23.771Z,100213.81
2023-05-02T03:38:25.722Z,100222.31
2023-05-02T03:43:27.593Z,100225.25
2023-05-02T03:48:30.692Z,100235.50
2023-05-02T03:53:33.587Z,100239.69
2023-05-02T03:58:36.518Z,100246.47
2023-05-02T04:03:39.548Z,100247.91
2023-05-02T04:08:43.474Z,100253.47
2023-05-02T04:13:45.319Z,100261.84
2023-05-02T04:18:47.375Z,100269.56
2023-05-02T04:23:49.232Z,100274.25
2023-05-02T04:28:51.142Z,100282.47
2023-05-02T04:33:53.176Z,100290.00
2023-05-02T04:38:59.097Z,100294.03
2023-05-02T04:44:01.086Z,100307.91
2023-05-02T04:49:03.401Z,100304.72
2023-05-02T04:54:05.352Z,100311.97
2023-05-02T04:59:07.228Z,100331.13
2023-05-02T05:04:10.160Z,100330.09
2023-05-02T05:09:12.312Z,100341.19
2023-05-02T05:14:14.337Z,100346.22
2023-05-02T05:19:18.934Z,100346.69
2023-05-02T05:24:21.306Z,100352.44
2023-05-02T05:29:24.940Z,100352.50
2023-05-02T05:34:27.150Z,100356.38
2023-05-02T05:39:32.677Z,100365.47
2023-05-02T05:44:36.637Z,100368.66
2023-05-02T05:49:39.040Z,100376.84
2023-05-02T05:54:44.096Z,100378.47
2023-05-02T05:59:46.142Z,100381.19
2023-05-02T06:04:49.803Z,100385.75
2023-05-02T06:09:55.026Z,100389.78
2023-05-02T06:14:57.089Z,100404.00
2023-05-02T06:19:59.202Z,100407.59
2023-05-02T06:25:02.336Z,100415.03
2023-05-02T06:30:05.289Z,100420.44
2023-05-02T06:35:07.302Z,100435.38
2023-05-02T06:40:10.211Z,100442.72
2023-05-02T06:45:11.973Z,100450.59
2023-05-02T06:50:13.791Z,100464.72
2023-05-02T06:55:15.837Z,100459.06
2023-05-02T07:00:19.211Z,100471.72
2023-05-02T07:05:21.012Z,100483.47
2023-05-02T07:10:23.016Z,100493.38
2023-05-02T07:15:24.782Z,100496.63
2023-05-02T07:20:26.598Z,100500.97
2023-05-02T07:25:28.431Z,100511.84
2023-05-02T07:30:30.246Z,100503.34
2023-05-02T07:35:32.003Z,100505.50
2023-05-02T07:40:33.753Z,100516.38
2023-05-02T07:45:35.662Z,100511.69
2023-05-02T07:50:37.404Z,100510.09
2023-05-02T07:55:39.150Z,100514.59
2023-05-02T08:00:41.022Z,100506.16
2023-05-02T08:05:42.877Z,100516.28
2023-05-02T08:10:45.466Z,100512.66
2023-05-02T08:15:47.309Z,100510.63
2023-05-02T08:20:50.788Z,100517.19
2023-05-02T08:25:52.566Z,100524.03
2023-05-02T08:30:54.425Z,100531.31
2023-05-02T08:35:56.239Z,100533.94
2023-05-02T08:40:58.024Z,100527.06
2023-05-02T08:46:01.934Z,100523.22
2023-05-02T08:51:05.060Z,100527.06
2023-05-02T08:56:07.895Z,100531.16
2023-05-02T09:01:14.920Z,100541.63
2023-05-02T09:06:19.080Z,100539.41
2023-05-02T09:11:21.703Z,100538.16
2023-05-02T09:16:26.023Z,100546.81
2023-05-02T09:21:40.350Z,100543.88
2023-05-02T09:26:42.153Z,100539.63
2023-05-02T09:31:55.559Z,100535.31
2023-05-02T09:36:58.546Z,100545.97
2023-05-02T09:42:01.560Z,100546.63
2023-05-02T09:47:03.660Z,100547.50
2023-05-02T09:52:22.368Z,100541.13
2023-05-02T09:57:40.788Z,100547.81
2023-05-02T10:02:43.318Z,100540.00
2023-05-02T10:07:46.213Z,100523.34
2023-05-02T10:12:52.369Z,100516.31
2023-05-02T10:17:58.401Z,100527.28
2023-05-02T10:23:01.466Z,100535.91
2023-05-02T10:28:03.844Z,100551.31
2023-05-02T10:33:06.099Z,100550.19
2023-05-02T10:38:08.039Z,100550.28
2023-05-02T10:43:15.970Z,100551.25
2023-05-02T10:48:19.800Z,100537.69
2023-05-02T10:53:28.732Z,100529.09
2023-05-02T10:58:30.558Z,100545.59
2023-05-02T11:03:54.175Z,100550.31
2023-05-02T11:09:18.700Z,100544.97
2023-05-02T11:14:26.427Z,100545.47
2023-05-02T11:19:31.229Z,100548.13
2023-05-02T11:24:51.697Z,100558.81
2023-05-02T11:29:55.028Z,100551.00
2023-05-02T11:34:56.948Z,100547.94
2023-05-02T11:40:11.552Z,100556.31
2023-05-02T11:45:13.453Z,100564.81
2023-05-02T11:50:15.943Z,100555.16
2023-05-02T11:55:17.906Z,100575.34
2023-05-02T12:00:19.753Z,100580.00
2023-05-02T12:05:32.640Z,100584.50
2023-05-02T12:10:37.744Z,100583.75
2023-05-02T12:15:39.701Z,100591.38
2023-05-02T12:20:42.290Z,100593.44
2023-05-02T12:25:44.106Z,100606.88
2023-05-02T12:30:48.830Z,100608.91
2023-05-02T12:35:51.284Z,100611.94
2023-05-02T12:40:57.593Z,100620.13
2023-05-02T12:46:12.530Z,100618.44
2023-05-02T12:51:22.741Z,100628.91
2023-05-02T12:56:24.744Z,100630.06
2023-05-02T13:01:27.240Z,100633.91
2023-05-02T13:06:29.176Z,100632.53
2023-05-02T13:11:31.028Z,100644.75
2023-05-02T13:16:34.810Z,100643.13
2023-05-02T13:21:36.710Z,100650.69
2023-05-02T13:26:38.570Z,100660.66
2023-05-02T13:31:40.430Z,100670.59
2023-05-02T13:36:46.413Z,100666.09
2023-05-02T13:41:48.486Z,100659.31
2023-05-02T13:46:50.233Z,100670.00
2023-05-02T13:51:51.988Z,100667.50
2023-05-02T13:56:53.951Z,100664.69
2023-05-02T14:01:56.142Z,100656.88
2023-05-02T14:06:58.060Z,100675.06
2023-05-02T14:11:59.960Z,100686.97
2023-05-02T14:17:02.772Z,100690.84
2023-05-02T14:22:04.599Z,100689.41
2023-05-02T14:27:07.748Z,100681.59
2023-05-02T14:32:09.536Z,100680.88
2023-05-02T14:37:11.352Z,100688.78
2023-05-02T14:42:13.167Z,100697.19
2023-05-02T14:47:15.017Z,100695.75
2023-05-02T14:52:16.873Z,100701.56
2023-05-02T14:57:18.878Z,100697.34
2023-05-02T15:02:21.940Z,100707.53
2023-05-02T15:07:23.951Z,100701.44
2023-05-02T15:12:26.410Z,100701.78
2023-05-02T15:17:28.152Z,100701.91
2023-05-02T15:22:29.947Z,100694.81
2023-05-02T15:27:31.755Z,100702.00
2023-05-02T15:32:33.640Z,100701.50
2023-05-02T15:37:36.101Z,100697.84
2023-05-02T15:42:37.953Z,100699.84
2023-05-02T15:47:40.515Z,100699.19
2023-05-02T15:52:42.612Z,100708.22
2023-05-02T15:57:44.393Z,100702.72
2023-05-02T16:02:46.277Z,100711.69
2023-05-02T16:07:48.178Z,100714.75
2023-05-02T16:12:50.057Z,100719.63
2023-05-02T16:17:51.948Z,100716.25
2023-05-02T16:22:53.900Z,100714.59
2023-05-02T16:27:55.805Z,100714.81
2023-05-02T16:32:57.669Z,100725.28
2023-05-02T16:37:59.598Z,100728.44
2023-05-02T16:43:01.495Z,100735.47
2023-05-02T16:48:04.672Z,100742.16
2023-05-02T16:53:07.056Z,100732.63
2023-05-02T16:58:08.773Z,100737.41
2023-05-02T17:03:11.118Z,100739.28
2023-05-02T17:08:13.852Z,100739.88
2023-05-02T17:13:16.296Z,100737.81
2023-05-02T17:18:18.123Z,100745.94
2023-05-02T17:23:19.958Z,100736.88
2023-05-02T17:28:21.847Z,100753.00
2023-05-02T17:33:23.751Z,100753.16
2023-05-02T17:38:26.732Z,100755.25
2023-05-02T17:43:28.523Z,100758.44
2023-05-02T17:48:30.244Z,100769.47
2023-05-02T17:53:34.720Z,100763.03
2023-05-02T17:58:37.453Z,100763.75
2023-05-02T18:03:39.941Z,100769.81
2023-05-02T18:08:41.761Z,100773.75
2023-05-02T18:13:44.488Z,100770.91
2023-05-02T18:18:46.360Z,100778.69
2023-05-02T18:23:48.440Z,100788.84
2023-05-02T18:28:53.506Z,100785.78
2023-05-02T18:33:55.532Z,100797.72
2023-05-02T18:38:57.529Z,100796.97
2023-05-02T18:44:00.799Z,100810.66
2023-05-02T18:49:02.972Z,100818.56
2023-05-02T18:54:04.832Z,100829.97
2023-05-02T18:59:06.719Z,100834.16
2023-05-02T19:04:08.496Z,100840.56
2023-05-02T19:09:12.504Z,100836.81
2023-05-02T19:14:14.382Z,100844.25
2023-05-02T19:19:17.473Z,100847.94
2023-05-02T19:24:21.158Z,100857.16
2023-05-02T19:29:23.012Z,100860.06
2023-05-02T19:34:24.725Z,100871.81
2023-05-02T19:39:26.524Z,100878.63
2023-05-02T19:44:28.286Z,100878.06
2023-05-02T19:49:30.055Z,100887.38
2023-05-02T19:54:33.345Z,100899.91
2023-05-02T19:59:35.075Z,100892.28
2023-05-02T20:04:36.973Z,100901.13
2023-05-02T20:09:38.735Z,100912.56
2023-05-02T20:14:41.783Z,100919.16
2023-05-02T20:19:45.363Z,100926.84
2023-05-02T20:24:47.094Z,100928.22
2023-05-02T20:29:48.867Z,100941.72
2023-05-02T20:34:50.785Z,100945.00
2023-05-02T20:39:52.726Z,100942.06
2023-05-02T20:44:57.229Z,100949.97
2023-05-02T20:49:59.624Z,100952.81
2023-05-02T20:55:01.811Z,100946.25
2023-05-02T21:00:04.572Z,100955.56
2023-05-02T21:05:07.243Z,100954.69
2023-05-02T21:10:10.858Z,100956.38
2023-05-02T21:15:15.345Z,100966.25
2023-05-02T21:20:17.108Z,100961.47
2023-05-02T21:25:19.254Z,100969.50
2023-05-02T21:30:21.390Z,100968.00
2023-05-02T21:35:23.147Z,100979.47
2023-05-02T21:40:24.901Z,100985.88
2023-05-02T21:45:26.963Z,100987.72
2023-05-02T21:50:29.428Z,100993.53
2023-05-02T21:55:31.183Z,100987.88
2023-05-02T22:00:33.538Z,100987.28
2023-05-02T22:05:40.073Z,100997.63
2023-05-02T22:10:43.364Z,100999.41
2023-05-02T22:15:46.734Z,101001.53
2023-05-02T22:20:48.507Z,100997.81
2023-05-02T22:25:50.299Z,101007.28
2023-05-02T22:30:52.018Z,101020.13
2023-05-02T22:35:53.836Z,101022.19
2023-05-02T22:40:55.633Z,101026.72
2023-05-02T22:45:58.967Z,101021.34
2023-05-02T22:51:01.074Z,101029.50
2023-05-02T22:56:03.489Z,101040.03
2023-05-02T23:01:05.306Z,101023.13
2023-05-02T23:06:07.279Z,101024.16
2023-05-02T23:11:09.089Z,101029.38
2023-05-02T23:16:10.907Z,101031.47
2023-05-02T23:21:16.527Z,101025.63
2023-05-02T23:26:18.258Z,101026.56
2023-05-02T23:31:20.122Z,101019.53
2023-05-02T23:36:22.060Z,101019.66
2023-05-02T23:41:23.993Z,101031.03
2023-05-02T23:46:25.931Z,101028.94
2023-05-02T23:51:28.515Z,101027.16
2023-05-02T23:56:30.334Z,101028.00
